sensor_id;sensor_type;location;lat;lon;timestamp;temperature;humidity
4530;DHT22;2277;51.626;7.516;2023-04-24T00:00:36;13.40;99.90
4530;DHT22;2277;51.626;7.516;2023-04-24T00:03:05;13.40;99.90
4530;DHT22;2277;51.626;7.516;2023-04-24T00:05:32;13.30;99.90
4530;DHT22;2277;51.626;7.516;2023-04-24T00:07:58;13.30;99.90
4530;DHT22;2277;51.626;7.516;2023-04-24T00:10:23;13.30;99.90
4530;DHT22;2277;51.626;7.516;2023-04-24T00:12:49;13.30;99.90
4530;DHT22;2277;51.626;7.516;2023-04-24T00:15:15;13.30;99.90
4530;DHT22;2277;51.626;7.516;2023-04-24T00:17:40;13.40;99.90
4530;DHT22;2277;51.626;7.516;2023-04-24T00:20:06;13.40;99.90
4530;DHT22;2277;51.626;7.516;2023-04-24T00:22:32;13.40;99.90
4530;DHT22;2277;51.626;7.516;2023-04-24T00:24:58;13.40;99.90
4530;DHT22;2277;51.626;7.516;2023-04-24T00:27:24;13.30;99.90
4530;DHT22;2277;51.626;7.516;2023-04-24T00:29:49;13.30;99.90
4530;DHT22;2277;51.626;7.516;2023-04-24T00:32:15;13.20;99.90
4530;DHT22;2277;51.626;7.516;2023-04-24T00:34:41;13.20;99.90
4530;DHT22;2277;51.626;7.516;2023-04-24T00:37:07;13.20;99.90
4530;DHT22;2277;51.626;7.516;2023-04-24T00:39:32;13.10;99.90
4530;DHT22;2277;51.626;7.516;2023-04-24T00:41:58;13.00;99.90
4530;DHT22;2277;51.626;7.516;2023-04-24T00:44:24;12.90;99.90
4530;DHT22;2277;51.626;7.516;2023-04-24T00:46:51;12.80;99.90
4530;DHT22;2277;51.626;7.516;2023-04-24T00:49:20;12.90;99.90
4530;DHT22;2277;51.626;7.516;2023-04-24T00:51:46;12.80;99.90
4530;DHT22;2277;51.626;7.516;2023-04-24T00:54:15;12.80;99.90
4530;DHT22;2277;51.626;7.516;2023-04-24T00:56:42;12.80;99.90
4530;DHT22;2277;51.626;7.516;2023-04-24T00:59:08;12.70;99.90
4530;DHT22;2277;51.626;7.516;2023-04-24T01:01:33;12.60;99.90
4530;DHT22;2277;51.626;7.516;2023-04-24T01:03:59;12.70;99.90
4530;DHT22;2277;51.626;7.516;2023-04-24T01:06:28;12.60;99.90
4530;DHT22;2277;51.626;7.516;2023-04-24T01:08:54;12.60;99.90
4530;DHT22;2277;51.626;7.516;2023-04-24T01:11:21;12.60;99.90
4530;DHT22;2277;51.626;7.516;2023-04-24T01:13:47;12.50;99.90
4530;DHT22;2277;51.626;7.516;2023-04-24T01:16:14;12.50;99.90
4530;DHT22;2277;51.626;7.516;2023-04-24T01:18:42;12.60;99.90
4530;DHT22;2277;51.626;7.516;2023-04-24T01:21:08;12.50;99.90
4530;DHT22;2277;51.626;7.516;2023-04-24T01:23:34;12.50;99.90
4530;DHT22;2277;51.626;7.516;2023-04-24T01:26:01;12.50;99.90
4530;DHT22;2277;51.626;7.516;2023-04-24T01:28:26;12.40;99.90
4530;DHT22;2277;51.626;7.516;2023-04-24T01:30:52;12.40;99.90
4530;DHT22;2277;51.626;7.516;2023-04-24T01:33:21;12.40;99.90
4530;DHT22;2277;51.626;7.516;2023-04-24T01:35:46;12.40;99.90
4530;DHT22;2277;51.626;7.516;2023-04-24T01:38:12;12.30;99.90
4530;DHT22;2277;51.626;7.516;2023-04-24T01:40:38;12.30;99.90
4530;DHT22;2277;51.626;7.516;2023-04-24T01:43:04;12.30;99.90
4530;DHT22;2277;51.626;7.516;2023-04-24T01:45:29;12.30;99.90
4530;DHT22;2277;51.626;7.516;2023-04-24T01:47:55;12.30;99.90
4530;DHT22;2277;51.626;7.516;2023-04-24T01:50:21;12.30;99.90
4530;DHT22;2277;51.626;7.516;2023-04-24T01:52:47;12.20;99.90
4530;DHT22;2277;51.626;7.516;2023-04-24T01:55:12;12.30;99.90
4530;DHT22;2277;51.626;7.516;2023-04-24T01:57:38;12.30;99.90
4530;DHT22;2277;51.626;7.516;2023-04-24T02:00:05;12.40;99.90
4530;DHT22;2277;51.626;7.516;2023-04-24T02:02:32;12.30;99.90
4530;DHT22;2277;51.626;7.516;2023-04-24T02:04:58;12.30;99.90
4530;DHT22;2277;51.626;7.516;2023-04-24T02:07:23;12.30;99.90
4530;DHT22;2277;51.626;7.516;2023-04-24T02:09:49;12.30;99.90
4530;DHT22;2277;51.626;7.516;2023-04-24T02:12:15;12.30;99.90
4530;DHT22;2277;51.626;7.516;2023-04-24T02:14:43;12.30;99.90
4530;DHT22;2277;51.626;7.516;2023-04-24T02:17:08;12.30;99.90
4530;DHT22;2277;51.626;7.516;2023-04-24T02:19:34;12.30;99.90
4530;DHT22;2277;51.626;7.516;2023-04-24T02:22:00;12.20;99.90
4530;DHT22;2277;51.626;7.516;2023-04-24T02:24:25;12.20;99.90
4530;DHT22;2277;51.626;7.516;2023-04-24T02:26:51;12.10;99.90
4530;DHT22;2277;51.626;7.516;2023-04-24T02:29:16;12.10;99.90
4530;DHT22;2277;51.626;7.516;2023-04-24T02:31:42;12.00;99.90
4530;DHT22;2277;51.626;7.516;2023-04-24T02:34:08;12.00;99.90
4530;DHT22;2277;51.626;7.516;2023-04-24T02:36:33;12.00;99.90
4530;DHT22;2277;51.626;7.516;2023-04-24T02:38:59;12.00;99.90
4530;DHT22;2277;51.626;7.516;2023-04-24T02:41:26;11.90;99.90
4530;DHT22;2277;51.626;7.516;2023-04-24T02:43:57;11.90;99.90
4530;DHT22;2277;51.626;7.516;2023-04-24T02:46:23;11.80;99.90
4530;DHT22;2277;51.626;7.516;2023-04-24T02:48:48;11.70;99.90
4530;DHT22;2277;51.626;7.516;2023-04-24T02:51:14;11.70;99.90
4530;DHT22;2277;51.626;7.516;2023-04-24T02:53:40;11.70;99.90
4530;DHT22;2277;51.626;7.516;2023-04-24T02:56:06;11.70;99.90
4530;DHT22;2277;51.626;7.516;2023-04-24T02:58:31;11.70;99.90
4530;DHT22;2277;51.626;7.516;2023-04-24T03:00:57;11.70;99.90
4530;DHT22;2277;51.626;7.516;2023-04-24T03:03:23;11.60;99.90
4530;DHT22;2277;51.626;7.516;2023-04-24T03:05:49;11.50;99.90
4530;DHT22;2277;51.626;7.516;2023-04-24T03:08:15;11.40;99.90
4530;DHT22;2277;51.626;7.516;2023-04-24T03:10:41;11.40;99.90
4530;DHT22;2277;51.626;7.516;2023-04-24T03:13:06;11.40;99.90
4530;DHT22;2277;51.626;7.516;2023-04-24T03:15:32;11.30;99.90
4530;DHT22;2277;51.626;7.516;2023-04-24T03:17:58;11.40;99.90
4530;DHT22;2277;51.626;7.516;2023-04-24T03:20:24;11.40;99.90
4530;DHT22;2277;51.626;7.516;2023-04-24T03:22:49;11.30;99.90
4530;DHT22;2277;51.626;7.516;2023-04-24T03:25:15;11.30;99.90
4530;DHT22;2277;51.626;7.516;2023-04-24T03:27:41;11.30;99.90
4530;DHT22;2277;51.626;7.516;2023-04-24T03:30:07;11.20;99.90
4530;DHT22;2277;51.626;7.516;2023-04-24T03:32:33;11.10;99.90
4530;DHT22;2277;51.626;7.516;2023-04-24T03:34:58;11.10;99.90
4530;DHT22;2277;51.626;7.516;2023-04-24T03:37:24;11.00;99.90
4530;DHT22;2277;51.626;7.516;2023-04-24T03:39:50;11.10;99.90
4530;DHT22;2277;51.626;7.516;2023-04-24T03:42:16;11.20;99.90
4530;DHT22;2277;51.626;7.516;2023-04-24T03:44:42;11.20;99.90
4530;DHT22;2277;51.626;7.516;2023-04-24T03:47:07;11.10;99.90
4530;DHT22;2277;51.626;7.516;2023-04-24T03:49:33;11.00;99.90
4530;DHT22;2277;51.626;7.516;2023-04-24T03:51:58;11.10;99.90
4530;DHT22;2277;51.626;7.516;2023-04-24T03:54:24;11.10;99.90
4530;DHT22;2277;51.626;7.516;2023-04-24T03:56:50;11.10;99.90
4530;DHT22;2277;51.626;7.516;2023-04-24T03:59:15;11.10;99.90
4530;DHT22;2277;51.626;7.516;2023-04-24T04:01:41;11.20;99.90
4530;DHT22;2277;51.626;7.516;2023-04-24T04:04:07;11.20;99.90
4530;DHT22;2277;51.626;7.516;2023-04-24T04:06:33;11.10;99.90
4530;DHT22;2277;51.626;7.516;2023-04-24T04:08:59;11.20;99.90
4530;DHT22;2277;51.626;7.516;2023-04-24T04:11:25;11.20;99.90
4530;DHT22;2277;51.626;7.516;2023-04-24T04:13:51;11.20;99.90
4530;DHT22;2277;51.626;7.516;2023-04-24T04:16:16;11.20;99.90
4530;DHT22;2277;51.626;7.516;2023-04-24T04:18:43;11.20;99.90
4530;DHT22;2277;51.626;7.516;2023-04-24T04:21:09;11.20;99.90
4530;DHT22;2277;51.626;7.516;2023-04-24T04:23:34;11.20;99.90
4530;DHT22;2277;51.626;7.516;2023-04-24T04:26:00;11.20;99.90
4530;DHT22;2277;51.626;7.516;2023-04-24T04:28:26;11.20;99.90
4530;DHT22;2277;51.626;7.516;2023-04-24T04:30:52;11.20;99.90
4530;DHT22;2277;51.626;7.516;2023-04-24T04:33:21;11.20;99.90
4530;DHT22;2277;51.626;7.516;2023-04-24T04:35:47;11.20;99.90
4530;DHT22;2277;51.626;7.516;2023-04-24T04:38:17;11.20;99.90
4530;DHT22;2277;51.626;7.516;2023-04-24T04:40:43;11.20;99.90
4530;DHT22;2277;51.626;7.516;2023-04-24T04:43:10;11.20;99.90
4530;DHT22;2277;51.626;7.516;2023-04-24T04:45:36;11.30;99.90
4530;DHT22;2277;51.626;7.516;2023-04-24T04:48:04;11.20;99.90
4530;DHT22;2277;51.626;7.516;2023-04-24T04:50:32;11.20;99.90
4530;DHT22;2277;51.626;7.516;2023-04-24T04:52:58;11.10;99.90
4530;DHT22;2277;51.626;7.516;2023-04-24T04:55:24;11.10;99.90
4530;DHT22;2277;51.626;7.516;2023-04-24T04:57:50;11.00;99.90
4530;DHT22;2277;51.626;7.516;2023-04-24T05:00:16;11.10;99.90
4530;DHT22;2277;51.626;7.516;2023-04-24T05:02:41;11.10;99.90
4530;DHT22;2277;51.626;7.516;2023-04-24T05:05:07;11.10;99.90
4530;DHT22;2277;51.626;7.516;2023-04-24T05:07:34;11.10;99.90
4530;DHT22;2277;51.626;7.516;2023-04-24T05:10:00;11.20;99.90
4530;DHT22;2277;51.626;7.516;2023-04-24T05:12:25;11.10;99.90
4530;DHT22;2277;51.626;7.516;2023-04-24T05:14:51;11.20;99.90
4530;DHT22;2277;51.626;7.516;2023-04-24T05:17:17;11.20;99.90
4530;DHT22;2277;51.626;7.516;2023-04-24T05:19:42;11.10;99.90
4530;DHT22;2277;51.626;7.516;2023-04-24T05:22:08;11.20;99.90
4530;DHT22;2277;51.626;7.516;2023-04-24T05:24:35;11.20;99.90
4530;DHT22;2277;51.626;7.516;2023-04-24T05:27:02;11.30;99.90
4530;DHT22;2277;51.626;7.516;2023-04-24T05:29:30;11.20;99.90
4530;DHT22;2277;51.626;7.516;2023-04-24T05:31:57;11.20;99.90
4530;DHT22;2277;51.626;7.516;2023-04-24T05:34:22;11.20;99.90
4530;DHT22;2277;51.626;7.516;2023-04-24T05:36:48;11.30;99.90
4530;DHT22;2277;51.626;7.516;2023-04-24T05:39:14;11.30;99.90
4530;DHT22;2277;51.626;7.516;2023-04-24T05:41:40;11.20;99.90
4530;DHT22;2277;51.626;7.516;2023-04-24T05:44:06;11.20;99.90
4530;DHT22;2277;51.626;7.516;2023-04-24T05:46:31;11.20;99.90
4530;DHT22;2277;51.626;7.516;2023-04-24T05:48:57;11.30;99.90
4530;DHT22;2277;51.626;7.516;2023-04-24T05:51:23;11.30;99.90
4530;DHT22;2277;51.626;7.516;2023-04-24T05:53:49;11.20;99.90
4530;DHT22;2277;51.626;7.516;2023-04-24T05:56:15;11.30;99.90
4530;DHT22;2277;51.626;7.516;2023-04-24T05:58:41;11.20;99.90
4530;DHT22;2277;51.626;7.516;2023-04-24T06:01:07;11.30;99.90
4530;DHT22;2277;51.626;7.516;2023-04-24T06:03:32;11.20;99.90
4530;DHT22;2277;51.626;7.516;2023-04-24T06:05:58;11.30;99.90
4530;DHT22;2277;51.626;7.516;2023-04-24T06:08:23;11.30;99.90
4530;DHT22;2277;51.626;7.516;2023-04-24T06:10:49;11.20;99.90
4530;DHT22;2277;51.626;7.516;2023-04-24T06:13:15;11.30;99.90
4530;DHT22;2277;51.626;7.516;2023-04-24T06:15:41;11.20;99.90
4530;DHT22;2277;51.626;7.516;2023-04-24T06:18:07;11.10;99.90
4530;DHT22;2277;51.626;7.516;2023-04-24T06:20:33;11.10;99.90
4530;DHT22;2277;51.626;7.516;2023-04-24T06:22:58;11.10;99.90
4530;DHT22;2277;51.626;7.516;2023-04-24T06:25:27;11.10;99.90
4530;DHT22;2277;51.626;7.516;2023-04-24T06:27:53;11.00;99.90
4530;DHT22;2277;51.626;7.516;2023-04-24T06:30:19;10.90;99.90
4530;DHT22;2277;51.626;7.516;2023-04-24T06:32:44;10.90;99.90
4530;DHT22;2277;51.626;7.516;2023-04-24T06:35:10;10.80;99.90
4530;DHT22;2277;51.626;7.516;2023-04-24T06:37:41;10.90;99.90
4530;DHT22;2277;51.626;7.516;2023-04-24T06:40:07;10.80;99.90
4530;DHT22;2277;51.626;7.516;2023-04-24T06:42:33;10.90;99.90
4530;DHT22;2277;51.626;7.516;2023-04-24T06:45:00;10.80;99.90
4530;DHT22;2277;51.626;7.516;2023-04-24T06:47:26;10.80;99.90
4530;DHT22;2277;51.626;7.516;2023-04-24T06:49:51;10.80;99.90
4530;DHT22;2277;51.626;7.516;2023-04-24T06:52:18;10.70;99.90
4530;DHT22;2277;51.626;7.516;2023-04-24T06:54:43;10.70;99.90
4530;DHT22;2277;51.626;7.516;2023-04-24T06:57:09;10.60;99.90
4530;DHT22;2277;51.626;7.516;2023-04-24T06:59:35;10.60;99.90
4530;DHT22;2277;51.626;7.516;2023-04-24T07:02:01;10.70;99.90
4530;DHT22;2277;51.626;7.516;2023-04-24T07:04:28;10.70;99.90
4530;DHT22;2277;51.626;7.516;2023-04-24T07:06:54;10.70;99.90
4530;DHT22;2277;51.626;7.516;2023-04-24T07:09:21;10.70;99.90
4530;DHT22;2277;51.626;7.516;2023-04-24T07:11:47;10.70;99.90
4530;DHT22;2277;51.626;7.516;2023-04-24T07:14:13;10.80;99.90
4530;DHT22;2277;51.626;7.516;2023-04-24T07:16:39;10.80;99.90
4530;DHT22;2277;51.626;7.516;2023-04-24T07:19:05;10.90;99.90
4530;DHT22;2277;51.626;7.516;2023-04-24T07:21:30;11.00;99.90
4530;DHT22;2277;51.626;7.516;2023-04-24T07:23:57;11.10;99.90
4530;DHT22;2277;51.626;7.516;2023-04-24T07:26:23;11.10;99.90
4530;DHT22;2277;51.626;7.516;2023-04-24T07:28:49;11.10;99.90
4530;DHT22;2277;51.626;7.516;2023-04-24T07:31:14;11.10;99.90
4530;DHT22;2277;51.626;7.516;2023-04-24T07:33:40;11.10;99.90
4530;DHT22;2277;51.626;7.516;2023-04-24T07:36:06;11.10;99.90
4530;DHT22;2277;51.626;7.516;2023-04-24T07:38:32;11.10;99.90
4530;DHT22;2277;51.626;7.516;2023-04-24T07:40:57;10.90;99.90
4530;DHT22;2277;51.626;7.516;2023-04-24T07:43:23;10.90;99.90
4530;DHT22;2277;51.626;7.516;2023-04-24T07:45:52;10.90;99.90
4530;DHT22;2277;51.626;7.516;2023-04-24T07:48:18;11.00;99.90
4530;DHT22;2277;51.626;7.516;2023-04-24T07:50:44;10.90;99.90
4530;DHT22;2277;51.626;7.516;2023-04-24T07:53:10;10.90;99.90
4530;DHT22;2277;51.626;7.516;2023-04-24T07:55:36;10.90;99.90
4530;DHT22;2277;51.626;7.516;2023-04-24T07:58:02;10.80;99.90
4530;DHT22;2277;51.626;7.516;2023-04-24T08:00:27;10.90;99.90
4530;DHT22;2277;51.626;7.516;2023-04-24T08:02:53;11.00;99.90
4530;DHT22;2277;51.626;7.516;2023-04-24T08:05:18;11.10;99.90
4530;DHT22;2277;51.626;7.516;2023-04-24T08:07:45;11.10;99.90
4530;DHT22;2277;51.626;7.516;2023-04-24T08:10:14;11.20;99.90
4530;DHT22;2277;51.626;7.516;2023-04-24T08:12:41;11.20;99.90
4530;DHT22;2277;51.626;7.516;2023-04-24T08:15:07;11.20;99.90
4530;DHT22;2277;51.626;7.516;2023-04-24T08:17:34;11.30;99.90
4530;DHT22;2277;51.626;7.516;2023-04-24T08:20:00;11.20;99.90
4530;DHT22;2277;51.626;7.516;2023-04-24T08:22:29;11.20;99.90
4530;DHT22;2277;51.626;7.516;2023-04-24T08:24:55;11.20;99.90
4530;DHT22;2277;51.626;7.516;2023-04-24T08:27:25;11.20;99.90
4530;DHT22;2277;51.626;7.516;2023-04-24T08:29:53;11.20;99.90
4530;DHT22;2277;51.626;7.516;2023-04-24T08:32:19;11.20;99.90
4530;DHT22;2277;51.626;7.516;2023-04-24T08:34:44;11.20;99.90
4530;DHT22;2277;51.626;7.516;2023-04-24T08:37:10;11.20;99.90
4530;DHT22;2277;51.626;7.516;2023-04-24T08:39:36;11.10;99.90
4530;DHT22;2277;51.626;7.516;2023-04-24T08:42:03;11.20;99.90
4530;DHT22;2277;51.626;7.516;2023-04-24T08:44:33;11.30;99.90
4530;DHT22;2277;51.626;7.516;2023-04-24T08:47:00;11.30;99.90
4530;DHT22;2277;51.626;7.516;2023-04-24T08:49:28;11.30;99.90
4530;DHT22;2277;51.626;7.516;2023-04-24T08:51:54;11.30;99.90
4530;DHT22;2277;51.626;7.516;2023-04-24T08:54:21;11.30;99.90
4530;DHT22;2277;51.626;7.516;2023-04-24T08:56:48;11.20;99.90
4530;DHT22;2277;51.626;7.516;2023-04-24T08:59:15;11.20;99.90
4530;DHT22;2277;51.626;7.516;2023-04-24T09:01:41;11.20;99.90
4530;DHT22;2277;51.626;7.516;2023-04-24T09:04:08;11.10;99.90
4530;DHT22;2277;51.626;7.516;2023-04-24T09:06:38;11.10;99.90
4530;DHT22;2277;51.626;7.516;2023-04-24T09:09:04;11.00;99.90
4530;DHT22;2277;51.626;7.516;2023-04-24T09:11:31;10.90;99.90
4530;DHT22;2277;51.626;7.516;2023-04-24T09:14:00;10.90;99.90
4530;DHT22;2277;51.626;7.516;2023-04-24T09:16:27;10.80;99.90
4530;DHT22;2277;51.626;7.516;2023-04-24T09:18:53;10.80;99.90
4530;DHT22;2277;51.626;7.516;2023-04-24T09:21:21;10.80;99.90
4530;DHT22;2277;51.626;7.516;2023-04-24T09:23:58;10.80;99.90
4530;DHT22;2277;51.626;7.516;2023-04-24T09:26:25;10.80;99.90
4530;DHT22;2277;51.626;7.516;2023-04-24T09:28:50;10.80;99.90
4530;DHT22;2277;51.626;7.516;2023-04-24T09:31:18;10.80;99.90
4530;DHT22;2277;51.626;7.516;2023-04-24T09:34:02;10.80;99.90
4530;DHT22;2277;51.626;7.516;2023-04-24T09:36:38;10.80;99.90
4530;DHT22;2277;51.626;7.516;2023-04-24T09:39:06;10.70;99.90
4530;DHT22;2277;51.626;7.516;2023-04-24T09:41:33;10.60;99.90
4530;DHT22;2277;51.626;7.516;2023-04-24T09:44:15;10.60;99.90
4530;DHT22;2277;51.626;7.516;2023-04-24T09:46:42;10.70;99.90
4530;DHT22;2277;51.626;7.516;2023-04-24T09:49:15;10.70;99.90
4530;DHT22;2277;51.626;7.516;2023-04-24T09:51:42;10.80;99.90
4530;DHT22;2277;51.626;7.516;2023-04-24T09:54:19;10.90;99.90
4530;DHT22;2277;51.626;7.516;2023-04-24T09:56:49;11.00;99.90
4530;DHT22;2277;51.626;7.516;2023-04-24T09:59:17;11.10;99.90
4530;DHT22;2277;51.626;7.516;2023-04-24T10:01:43;11.00;99.90
4530;DHT22;2277;51.626;7.516;2023-04-24T10:04:21;11.10;99.90
4530;DHT22;2277;51.626;7.516;2023-04-24T10:06:49;11.20;99.90
4530;DHT22;2277;51.626;7.516;2023-04-24T10:09:16;11.20;99.90
4530;DHT22;2277;51.626;7.516;2023-04-24T10:11:44;11.20;99.90
4530;DHT22;2277;51.626;7.516;2023-04-24T10:14:15;11.20;99.90
4530;DHT22;2277;51.626;7.516;2023-04-24T10:16:42;11.30;99.90
4530;DHT22;2277;51.626;7.516;2023-04-24T10:19:08;11.30;99.90
4530;DHT22;2277;51.626;7.516;2023-04-24T10:21:34;11.20;99.90
4530;DHT22;2277;51.626;7.516;2023-04-24T10:24:00;11.20;99.90
4530;DHT22;2277;51.626;7.516;2023-04-24T10:26:29;11.20;99.90
4530;DHT22;2277;51.626;7.516;2023-04-24T10:28:56;11.10;99.90
4530;DHT22;2277;51.626;7.516;2023-04-24T10:31:22;11.00;99.90
4530;DHT22;2277;51.626;7.516;2023-04-24T10:33:50;10.90;99.90
4530;DHT22;2277;51.626;7.516;2023-04-24T10:36:17;10.90;99.90
4530;DHT22;2277;51.626;7.516;2023-04-24T10:38:45;10.80;99.90
4530;DHT22;2277;51.626;7.516;2023-04-24T10:41:12;10.70;99.90
4530;DHT22;2277;51.626;7.516;2023-04-24T10:43:45;10.70;99.90
4530;DHT22;2277;51.626;7.516;2023-04-24T10:46:19;10.60;99.90
4530;DHT22;2277;51.626;7.516;2023-04-24T10:48:55;10.70;99.90
4530;DHT22;2277;51.626;7.516;2023-04-24T10:51:22;10.70;99.90
4530;DHT22;2277;51.626;7.516;2023-04-24T10:53:50;10.80;99.90
4530;DHT22;2277;51.626;7.516;2023-04-24T10:56:16;10.70;99.90
4530;DHT22;2277;51.626;7.516;2023-04-24T10:58:44;10.80;99.90
4530;DHT22;2277;51.626;7.516;2023-04-24T11:03:59;10.80;99.90
4530;DHT22;2277;51.626;7.516;2023-04-24T11:06:33;10.80;99.90
4530;DHT22;2277;51.626;7.516;2023-04-24T11:09:08;10.80;99.90
4530;DHT22;2277;51.626;7.516;2023-04-24T11:11:35;10.90;99.90
4530;DHT22;2277;51.626;7.516;2023-04-24T11:14:03;10.90;99.90
4530;DHT22;2277;51.626;7.516;2023-04-24T11:16:30;10.90;99.90
4530;DHT22;2277;51.626;7.516;2023-04-24T11:22:05;10.90;99.90
4530;DHT22;2277;51.626;7.516;2023-04-24T11:24:48;10.80;99.90
4530;DHT22;2277;51.626;7.516;2023-04-24T11:27:20;10.90;99.90
4530;DHT22;2277;51.626;7.516;2023-04-24T11:35:00;10.80;99.90
4530;DHT22;2277;51.626;7.516;2023-04-24T11:37:29;10.90;99.90
4530;DHT22;2277;51.626;7.516;2023-04-24T11:39:57;10.90;99.90
4530;DHT22;2277;51.626;7.516;2023-04-24T11:42:23;10.90;99.90
4530;DHT22;2277;51.626;7.516;2023-04-24T11:44:52;10.80;99.90
4530;DHT22;2277;51.626;7.516;2023-04-24T11:47:18;10.90;99.90
4530;DHT22;2277;51.626;7.516;2023-04-24T11:49:44;10.90;99.90
4530;DHT22;2277;51.626;7.516;2023-04-24T11:52:09;10.90;99.90
4530;DHT22;2277;51.626;7.516;2023-04-24T11:54:36;10.90;99.90
4530;DHT22;2277;51.626;7.516;2023-04-24T11:57:04;10.90;99.90
4530;DHT22;2277;51.626;7.516;2023-04-24T11:59:35;10.80;99.90
4530;DHT22;2277;51.626;7.516;2023-04-24T12:02:02;10.80;99.90
4530;DHT22;2277;51.626;7.516;2023-04-24T12:04:38;10.80;99.90
4530;DHT22;2277;51.626;7.516;2023-04-24T12:07:05;10.90;99.90
4530;DHT22;2277;51.626;7.516;2023-04-24T12:12:10;11.00;99.90
4530;DHT22;2277;51.626;7.516;2023-04-24T12:14:48;11.10;99.90
4530;DHT22;2277;51.626;7.516;2023-04-24T12:17:15;11.20;99.90
4530;DHT22;2277;51.626;7.516;2023-04-24T12:19:47;11.20;99.90
4530;DHT22;2277;51.626;7.516;2023-04-24T12:22:13;11.30;99.90
4530;DHT22;2277;51.626;7.516;2023-04-24T12:25:01;11.30;99.90
4530;DHT22;2277;51.626;7.516;2023-04-24T12:27:31;11.30;99.90
4530;DHT22;2277;51.626;7.516;2023-04-24T12:29:59;11.20;99.90
4530;DHT22;2277;51.626;7.516;2023-04-24T12:32:25;11.30;99.90
4530;DHT22;2277;51.626;7.516;2023-04-24T12:34:52;11.40;99.90
4530;DHT22;2277;51.626;7.516;2023-04-24T12:37:18;11.40;99.90
4530;DHT22;2277;51.626;7.516;2023-04-24T12:40:03;11.40;99.90
4530;DHT22;2277;51.626;7.516;2023-04-24T12:42:31;11.50;99.90
4530;DHT22;2277;51.626;7.516;2023-04-24T12:45:03;11.60;99.90
4530;DHT22;2277;51.626;7.516;2023-04-24T12:47:30;11.70;99.90
4530;DHT22;2277;51.626;7.516;2023-04-24T12:49:55;11.80;99.90
4530;DHT22;2277;51.626;7.516;2023-04-24T12:52:26;11.80;99.90
4530;DHT22;2277;51.626;7.516;2023-04-24T12:54:57;11.70;99.90
4530;DHT22;2277;51.626;7.516;2023-04-24T12:57:27;11.70;99.90
4530;DHT22;2277;51.626;7.516;2023-04-24T12:59:57;11.70;99.90
4530;DHT22;2277;51.626;7.516;2023-04-24T13:02:24;11.70;99.90
4530;DHT22;2277;51.626;7.516;2023-04-24T13:04:50;11.70;99.90
4530;DHT22;2277;51.626;7.516;2023-04-24T13:07:16;11.70;99.90
4530;DHT22;2277;51.626;7.516;2023-04-24T13:09:43;11.70;99.90
4530;DHT22;2277;51.626;7.516;2023-04-24T13:12:10;11.70;99.90
4530;DHT22;2277;51.626;7.516;2023-04-24T13:14:35;11.70;99.90
4530;DHT22;2277;51.626;7.516;2023-04-24T13:17:01;11.70;99.90
4530;DHT22;2277;51.626;7.516;2023-04-24T13:19:28;11.80;99.90
4530;DHT22;2277;51.626;7.516;2023-04-24T13:21:56;11.80;99.90
4530;DHT22;2277;51.626;7.516;2023-04-24T13:24:25;11.80;99.90
4530;DHT22;2277;51.626;7.516;2023-04-24T13:26:52;11.70;99.90
4530;DHT22;2277;51.626;7.516;2023-04-24T13:29:18;11.70;99.90
4530;DHT22;2277;51.626;7.516;2023-04-24T13:31:43;11.70;99.90
4530;DHT22;2277;51.626;7.516;2023-04-24T13:34:09;11.60;99.90
4530;DHT22;2277;51.626;7.516;2023-04-24T13:36:35;11.70;99.90
4530;DHT22;2277;51.626;7.516;2023-04-24T13:39:02;11.60;99.90
4530;DHT22;2277;51.626;7.516;2023-04-24T13:41:29;11.60;99.90
4530;DHT22;2277;51.626;7.516;2023-04-24T13:43:55;11.60;99.90
4530;DHT22;2277;51.626;7.516;2023-04-24T13:46:21;11.70;99.90
4530;DHT22;2277;51.626;7.516;2023-04-24T13:48:47;11.70;99.90
4530;DHT22;2277;51.626;7.516;2023-04-24T13:51:13;11.80;99.90
4530;DHT22;2277;51.626;7.516;2023-04-24T13:53:38;11.80;99.90
4530;DHT22;2277;51.626;7.516;2023-04-24T13:56:05;11.80;99.90
4530;DHT22;2277;51.626;7.516;2023-04-24T13:58:31;11.70;99.90
4530;DHT22;2277;51.626;7.516;2023-04-24T14:00:57;11.70;99.90
4530;DHT22;2277;51.626;7.516;2023-04-24T14:03:23;11.70;99.90
4530;DHT22;2277;51.626;7.516;2023-04-24T14:05:49;11.70;99.90
4530;DHT22;2277;51.626;7.516;2023-04-24T14:08:14;11.70;99.90
4530;DHT22;2277;51.626;7.516;2023-04-24T14:10:40;11.60;99.90
4530;DHT22;2277;51.626;7.516;2023-04-24T14:13:05;11.70;99.90
4530;DHT22;2277;51.626;7.516;2023-04-24T14:15:31;11.70;99.90
4530;DHT22;2277;51.626;7.516;2023-04-24T14:17:57;11.70;99.90
4530;DHT22;2277;51.626;7.516;2023-04-24T14:20:23;11.80;99.90
4530;DHT22;2277;51.626;7.516;2023-04-24T14:22:48;12.10;99.90
4530;DHT22;2277;51.626;7.516;2023-04-24T14:25:14;12.10;99.90
4530;DHT22;2277;51.626;7.516;2023-04-24T14:27:40;12.20;99.90
4530;DHT22;2277;51.626;7.516;2023-04-24T14:30:07;12.30;99.90
4530;DHT22;2277;51.626;7.516;2023-04-24T14:32:32;12.30;99.90
4530;DHT22;2277;51.626;7.516;2023-04-24T14:34:58;12.20;99.90
4530;DHT22;2277;51.626;7.516;2023-04-24T14:37:24;12.30;99.90
4530;DHT22;2277;51.626;7.516;2023-04-24T14:39:50;12.30;99.90
4530;DHT22;2277;51.626;7.516;2023-04-24T14:42:15;12.30;99.90
4530;DHT22;2277;51.626;7.516;2023-04-24T14:44:42;12.30;99.90
4530;DHT22;2277;51.626;7.516;2023-04-24T14:47:08;12.40;99.90
4530;DHT22;2277;51.626;7.516;2023-04-24T14:49:33;12.40;99.90
4530;DHT22;2277;51.626;7.516;2023-04-24T14:51:59;12.40;99.90
4530;DHT22;2277;51.626;7.516;2023-04-24T14:54:25;12.40;99.90
4530;DHT22;2277;51.626;7.516;2023-04-24T14:56:51;12.40;99.90
4530;DHT22;2277;51.626;7.516;2023-04-24T14:59:16;12.40;99.90
4530;DHT22;2277;51.626;7.516;2023-04-24T15:01:42;12.30;99.90
4530;DHT22;2277;51.626;7.516;2023-04-24T15:04:07;12.20;99.90
4530;DHT22;2277;51.626;7.516;2023-04-24T15:06:33;12.10;99.90
4530;DHT22;2277;51.626;7.516;2023-04-24T15:08:58;12.10;99.90
4530;DHT22;2277;51.626;7.516;2023-04-24T15:11:24;12.00;99.90
4530;DHT22;2277;51.626;7.516;2023-04-24T15:13:50;11.90;99.90
4530;DHT22;2277;51.626;7.516;2023-04-24T15:16:16;12.00;99.90
4530;DHT22;2277;51.626;7.516;2023-04-24T15:18:41;11.90;99.90
4530;DHT22;2277;51.626;7.516;2023-04-24T15:21:07;11.90;99.90
4530;DHT22;2277;51.626;7.516;2023-04-24T15:23:33;11.90;99.90
4530;DHT22;2277;51.626;7.516;2023-04-24T15:25:58;11.90;99.90
4530;DHT22;2277;51.626;7.516;2023-04-24T15:28:25;12.00;99.90
4530;DHT22;2277;51.626;7.516;2023-04-24T15:30:50;12.10;99.90
4530;DHT22;2277;51.626;7.516;2023-04-24T15:33:16;12.20;99.90
4530;DHT22;2277;51.626;7.516;2023-04-24T15:35:41;12.20;99.90
4530;DHT22;2277;51.626;7.516;2023-04-24T15:38:07;12.20;99.90
4530;DHT22;2277;51.626;7.516;2023-04-24T15:40:33;12.20;99.90
4530;DHT22;2277;51.626;7.516;2023-04-24T15:42:58;12.30;99.90
4530;DHT22;2277;51.626;7.516;2023-04-24T15:45:24;12.30;99.90
4530;DHT22;2277;51.626;7.516;2023-04-24T15:47:50;12.30;99.90
4530;DHT22;2277;51.626;7.516;2023-04-24T15:50:16;12.50;99.90
4530;DHT22;2277;51.626;7.516;2023-04-24T15:52:43;12.60;99.90
4530;DHT22;2277;51.626;7.516;2023-04-24T15:55:09;12.60;99.90
4530;DHT22;2277;51.626;7.516;2023-04-24T15:57:35;12.70;99.90
4530;DHT22;2277;51.626;7.516;2023-04-24T16:00:01;12.70;99.90
4530;DHT22;2277;51.626;7.516;2023-04-24T16:02:27;12.80;99.90
4530;DHT22;2277;51.626;7.516;2023-04-24T16:04:52;12.80;99.90
4530;DHT22;2277;51.626;7.516;2023-04-24T16:07:18;12.70;99.90
4530;DHT22;2277;51.626;7.516;2023-04-24T16:09:44;12.70;99.90
4530;DHT22;2277;51.626;7.516;2023-04-24T16:12:10;12.70;99.90